首页
METAR-TAF:

METAR-TAF

机场 :

大加那利岛, 西班牙

大加那利机场

纬度: 27-56N, 经度: 015-23W, 海拔: 23米

当前天气观测

该预报发布于31分钟前的14:00 UTC
风速12节,风向北转东北
温度 21°C
湿度 69%
气压 1025 hPa
能见度10公里或以上
1500米以下无云,无积雨云

METAR: GCLP 221400Z 03012KT CAVOK 21/15 Q1025 NOSIG

时间: 14:31 (14:31 UTC)

预报

该预报发布于6小时和31分钟前的08:00 UTC
预报有效从22日的 09点(UTC)到 23日的 09点(UTC)
风速13节,风向北转东北
能见度10公里或以上
少量云层高于2000英尺

TAF: GCLP 220800Z 2209/2309 02013KT 9999 FEW020 TX23/2214Z TN15/2306Z

超过4000个机场的气象观测和天气预报(METAR&TAF报告)。

可查询的气象台以黄色和红色小点在地图上表示。

将鼠标移到小点上方,可查看气象台名称。

然后点击查看天气观测和预报。

如需切换地图:点击带黑十字的绿色按钮放大地图;点击带横线的绿色按钮缩小地图;或者点击绿色箭头查看邻近地区的地图。


METAR-TAF: